Time;durP1;ratioP1;P1;durP2;ratioP2;P2;SDS_P1;SDS_P2;PMS_P1;PMS_P2;Temp;Humidity;BMP_temperature;BMP_pressure;BME280_temperature;BME280_humidity;BME280_pressure;Samples;Min_cycle;Max_cycle;Signal;HPM_P1;HPM_P2
2022/08/09 00:02:39;;;;;;;2.80;1.80;;;;;;;17.54;44.92;100692.88;10341210;28;20136;-85
2022/08/09 00:07:50;;;;;;;4.78;1.98;;;;;;;17.42;44.83;100698.25;10339225;28;20490;-84
2022/08/09 00:12:54;;;;;;;4.95;2.20;;;;;;;17.32;45.37;100687.53;10354614;28;20061;-85
2022/08/09 00:17:58;;;;;;;5.28;2.90;;;;;;;17.33;45.18;100694.50;10342407;28;20054;-85
2022/08/09 00:23:12;;;;;;;6.38;2.38;;;;;;;17.39;45.34;100699.34;10341940;28;20491;-85
2022/08/09 00:28:34;;;;;;;3.72;2.17;;;;;;;17.20;46.05;100696.34;10339788;28;20093;-85
2022/08/09 00:33:38;;;;;;;5.07;2.20;;;;;;;17.13;46.30;100700.41;10340237;28;20058;-85
2022/08/09 00:38:52;;;;;;;6.00;2.38;;;;;;;17.04;46.49;100701.94;10336436;28;20145;-84
2022/08/09 00:43:54;;;;;;;5.50;2.22;;;;;;;16.99;46.76;100700.59;10333761;28;20058;-84
2022/08/09 00:49:15;;;;;;;4.70;2.35;;;;;;;16.93;47.13;100699.28;10353031;28;20110;-85
2022/08/09 00:54:21;;;;;;;5.75;2.22;;;;;;;16.92;47.25;100694.94;10337661;28;20061;-84
2022/08/09 00:59:35;;;;;;;5.63;2.47;;;;;;;16.61;47.55;100699.94;10338625;28;20082;-85
2022/08/09 01:05:21;;;;;;;4.05;2.40;;;;;;;16.42;48.40;100705.66;10339335;28;20050;-85
2022/08/09 01:10:57;;;;;;;4.55;2.60;;;;;;;16.21;49.15;100708.03;10339088;28;20089;-85
2022/08/09 01:16:02;;;;;;;3.20;2.30;;;;;;;16.24;49.20;100702.53;10336549;28;20053;-85
2022/08/09 01:21:37;;;;;;;4.22;2.80;;;;;;;16.09;49.84;100708.91;10330728;28;20329;-85
2022/08/09 01:27:19;;;;;;;4.10;2.53;;;;;;;15.87;50.17;100700.78;10339219;28;20053;-85
2022/08/09 01:32:34;;;;;;;3.20;2.20;;;;;;;16.09;49.69;100700.97;10341415;28;20058;-85
2022/08/09 01:37:39;;;;;;;4.63;2.60;;;;;;;16.12;49.33;100700.75;10342400;28;20065;-85
2022/08/09 01:43:04;;;;;;;4.03;2.45;;;;;;;15.79;50.14;100707.53;10338013;28;20131;-84
2022/08/09 01:48:08;;;;;;;4.85;2.65;;;;;;;15.91;50.21;100694.34;10350724;28;20057;-84
2022/08/09 01:53:17;;;;;;;3.50;2.53;;;;;;;15.95;50.35;100695.84;10333398;28;20140;-85
2022/08/09 01:58:21;;;;;;;4.75;2.60;;;;;;;15.77;50.41;100699.75;10360518;28;20484;-85
2022/08/09 02:03:30;;;;;;;7.15;2.70;;;;;;;15.52;51.37;100699.72;10336098;28;20068;-85
2022/08/09 02:08:35;;;;;;;4.72;2.80;;;;;;;15.55;51.37;100703.97;10334756;28;20051;-85
2022/08/09 02:13:58;;;;;;;5.93;2.63;;;;;;;15.52;51.36;100707.63;10349468;28;20136;-85
2022/08/09 02:19:09;;;;;;;6.45;3.00;;;;;;;15.56;51.37;100709.13;10336575;28;20474;-84
2022/08/09 02:24:15;;;;;;;5.80;2.75;;;;;;;15.53;51.36;100711.94;10349670;28;20054;-85
2022/08/09 02:29:35;;;;;;;4.05;2.80;;;;;;;15.34;52.05;100707.06;10335302;28;20053;-85
2022/08/09 02:34:37;;;;;;;4.60;2.90;;;;;;;15.37;52.10;100708.63;10331388;28;20053;-85
2022/08/09 02:40:04;;;;;;;4.93;2.85;;;;;;;14.99;52.96;100712.97;10339510;28;20503;-84
2022/08/09 02:45:20;;;;;;;4.75;2.90;;;;;;;15.08;52.87;100707.94;10348193;28;20054;-85
2022/08/09 02:50:37;;;;;;;6.95;2.50;;;;;;;15.17;52.54;100709.13;10350524;28;20418;-84
2022/08/09 02:55:42;;;;;;;6.80;2.80;;;;;;;15.15;52.43;100708.38;10339248;28;20112;-85
2022/08/09 03:00:59;;;;;;;4.33;2.97;;;;;;;15.16;52.21;100703.00;10331169;28;20431;-84
2022/08/09 03:06:13;;;;;;;5.57;2.80;;;;;;;15.02;52.24;100697.81;10335085;28;20476;-85
2022/08/09 03:11:17;;;;;;;6.70;2.80;;;;;;;14.72;53.29;100698.94;10340212;28;20058;-85
2022/08/09 03:16:40;;;;;;;6.07;3.30;;;;;;;14.79;53.02;100706.38;10348296;28;20566;-84
2022/08/09 03:21:49;;;;;;;4.68;2.90;;;;;;;14.61;53.58;100709.34;10333261;28;20459;-84
2022/08/09 03:26:52;;;;;;;6.55;3.15;;;;;;;14.71;53.29;100708.66;10337719;28;20055;-85
2022/08/09 03:31:55;;;;;;;4.65;2.95;;;;;;;14.85;53.39;100716.50;10348865;28;20464;-85
2022/08/09 03:37:01;;;;;;;4.38;2.90;;;;;;;14.82;53.58;100721.13;10330949;28;20104;-85
2022/08/09 03:42:23;;;;;;;6.85;2.97;;;;;;;14.79;53.24;100723.97;10347202;28;20050;-84
2022/08/09 03:47:29;;;;;;;5.90;3.00;;;;;;;14.67;53.63;100730.00;10337772;28;20058;-84
2022/08/09 03:52:42;;;;;;;7.28;3.10;;;;;;;14.48;54.01;100732.94;10345308;28;20053;-84
2022/08/09 03:57:49;;;;;;;5.90;2.75;;;;;;;14.53;53.88;100739.63;10338903;28;20140;-85
2022/08/09 04:03:07;;;;;;;;;;;;;;;14.19;54.80;100732.13;10336587;28;20428;-84
2022/08/09 04:08:20;;;;;;;6.50;3.20;;;;;;;14.54;53.93;100738.69;10336447;28;19932;-84
2022/08/09 04:13:30;;;;;;;5.13;2.83;;;;;;;14.54;53.98;100741.31;10343340;28;20650;-84
2022/08/09 04:18:51;;;;;;;4.57;3.13;;;;;;;14.64;53.88;100749.47;10347434;28;20586;-84
2022/08/09 04:23:54;;;;;;;6.22;3.42;;;;;;;14.67;54.02;100745.81;10340771;28;20058;-84
2022/08/09 04:28:58;;;;;;;4.80;2.75;;;;;;;14.72;53.85;100756.88;10340403;28;20057;-84
2022/08/09 04:34:08;;;;;;;7.63;3.10;;;;;;;14.72;53.67;100756.88;10345489;28;20061;-84
2022/08/09 04:39:10;;;;;;;6.05;2.95;;;;;;;14.75;53.88;100765.44;10338988;28;20864;-84
2022/08/09 04:44:12;;;;;;;4.82;2.95;;;;;;;14.89;53.85;100769.81;10336427;28;20062;-84
2022/08/09 04:49:15;;;;;;;5.85;3.20;;;;;;;16.76;50.26;100765.69;10335535;28;20089;-84
2022/08/09 04:54:22;;;;;;;5.45;2.83;;;;;;;19.07;45.28;100758.31;10334811;28;20054;-84
2022/08/09 04:59:24;;;;;;;4.88;2.65;;;;;;;21.07;41.29;100755.91;10359409;28;20141;-85
2022/08/09 05:04:30;;;;;;;4.50;2.50;;;;;;;22.72;37.69;100752.75;10341295;28;20128;-85
2022/08/09 05:09:32;;;;;;;5.82;2.90;;;;;;;24.05;35.22;100753.44;10343452;28;20061;-85
2022/08/09 05:14:50;;;;;;;5.88;2.50;;;;;;;24.98;33.45;100751.53;10335230;28;20064;-85
2022/08/09 05:19:52;;;;;;;6.70;2.80;;;;;;;24.78;33.17;100754.66;10346898;28;20053;-86
2022/08/09 05:24:57;;;;;;;6.95;2.70;;;;;;;22.70;35.56;100774.22;10331765;28;20089;-86
2022/08/09 05:30:03;;;;;;;5.95;2.78;;;;;;;20.94;38.71;100784.59;10349032;28;20050;-86
2022/08/09 05:35:07;;;;;;;4.32;2.72;;;;;;;19.92;40.33;100783.84;10335956;28;20120;-85
2022/08/09 05:40:10;;;;;;;5.40;2.85;;;;;;;19.11;42.25;100791.56;10331390;28;20422;-86
2022/08/09 05:45:12;;;;;;;5.78;2.60;;;;;;;18.74;43.08;100792.81;10342591;28;20128;-85
2022/08/09 05:50:15;;;;;;;5.93;3.00;;;;;;;18.50;43.94;100805.38;10338124;28;20076;-85
2022/08/09 05:55:36;;;;;;;4.43;2.70;;;;;;;18.27;44.75;100808.97;10336269;28;20108;-85
2022/08/09 06:00:38;;;;;;;5.05;2.90;;;;;;;18.21;45.08;100809.44;10331342;28;20050;-85
2022/08/09 06:05:40;;;;;;;5.60;2.80;;;;;;;18.13;45.55;100810.00;10331738;28;20431;-85
2022/08/09 06:11:02;;;;;;;4.45;2.90;;;;;;;18.18;45.67;100814.97;10342050;28;20144;-86
2022/08/09 06:16:17;;;;;;;5.28;2.90;;;;;;;18.32;45.69;100812.94;10337520;28;20057;-85
2022/08/09 06:21:19;;;;;;;6.43;2.97;;;;;;;18.50;45.49;100813.31;10335551;28;20511;-85
2022/08/09 06:26:22;;;;;;;5.28;2.80;;;;;;;18.67;45.69;100812.00;10338854;28;20093;-85
2022/08/09 06:31:29;;;;;;;6.25;2.90;;;;;;;18.72;45.46;100821.25;10352525;28;20058;-85
2022/08/09 06:36:51;;;;;;;6.50;2.85;;;;;;;18.86;44.98;100822.78;10331844;28;20140;-85
2022/08/09 06:42:00;;;;;;;5.95;2.97;;;;;;;19.03;44.30;100830.28;10326479;28;20218;-86
2022/08/09 06:47:12;;;;;;;6.30;3.08;;;;;;;19.10;43.91;100821.69;10337324;28;20046;-85
2022/08/09 06:52:16;;;;;;;4.93;3.40;;;;;;;19.15;43.11;100824.84;10360082;28;20058;-85
2022/08/09 06:57:18;;;;;;;6.68;3.10;;;;;;;19.22;42.92;100826.00;10331997;28;20084;-85
2022/08/09 07:02:40;;;;;;;7.22;3.15;;;;;;;19.26;42.98;100818.63;10338558;28;20064;-85
2022/08/09 07:07:43;;;;;;;8.25;3.15;;;;;;;19.51;42.63;100828.06;10327837;28;20149;-85
2022/08/09 07:13:02;;;;;;;12.88;3.83;;;;;;;19.73;42.48;100822.66;10332199;28;20085;-85
2022/08/09 07:18:23;;;;;;;6.13;2.95;;;;;;;20.00;41.35;100823.03;10336056;28;20081;-85
2022/08/09 07:23:26;;;;;;;6.45;3.15;;;;;;;20.04;41.19;100824.44;10348862;28;20061;-86
2022/08/09 07:28:36;;;;;;;;;;;;;;;19.82;41.65;100828.09;10346572;28;20056;-85
2022/08/09 07:33:58;;;;;;;6.22;3.00;;;;;;;20.20;40.90;100836.28;10347138;28;19972;-85
2022/08/09 07:39:00;;;;;;;8.63;3.20;;;;;;;20.66;39.97;100830.53;10339399;28;20164;-85
2022/08/09 07:44:03;;;;;;;10.43;3.10;;;;;;;21.72;38.51;100816.44;10339324;28;20090;-86
2022/08/09 07:49:05;;;;;;;9.10;3.10;;;;;;;23.26;35.64;100822.06;10341167;28;20096;-86
2022/08/09 07:54:15;;;;;;;7.97;3.00;;;;;;;24.27;34.13;100801.91;10337767;28;20054;-86
2022/08/09 07:59:28;;;;;;;6.95;3.20;;;;;;;25.49;32.46;100795.16;10339978;28;20046;-86
2022/08/09 08:04:47;;;;;;;8.60;2.95;;;;;;;25.89;31.31;100795.16;10344850;28;20107;-86
2022/08/09 08:09:50;;;;;;;4.47;2.60;;;;;;;26.23;30.16;100794.94;10387237;28;20050;-85
2022/08/09 08:15:13;;;;;;;5.30;2.38;;;;;;;26.91;29.53;100793.38;10368760;28;20080;-87
2022/08/09 08:20:19;;;;;;;7.80;2.55;;;;;;;26.80;28.92;100791.06;10372555;28;20081;-85
2022/08/09 08:25:34;;;;;;;4.85;2.40;;;;;;;26.94;28.61;100792.16;10383013;28;20062;-87
2022/08/09 08:30:47;;;;;;;4.65;2.78;;;;;;;27.36;27.57;100790.75;10361743;28;20101;-86
2022/08/09 08:35:52;;;;;;;5.45;2.40;;;;;;;27.24;27.71;100783.31;10372312;28;20057;-86
2022/08/09 08:41:01;;;;;;;7.63;2.65;;;;;;;27.22;27.87;100783.44;10380385;28;20073;-86
2022/08/09 08:46:09;;;;;;;9.80;2.97;;;;;;;27.60;27.05;100770.91;10367859;28;20061;-86
2022/08/09 08:51:32;;;;;;;7.10;2.30;;;;;;;27.84;27.01;100772.56;10380371;28;20053;-85
2022/08/09 08:56:54;;;;;;;5.63;2.80;;;;;;;27.93;26.79;100771.47;10382623;28;20046;-87
2022/08/09 09:01:58;;;;;;;9.30;2.60;;;;;;;27.70;26.52;100767.97;10389668;28;20353;-86
2022/08/09 09:07:08;;;;;;;4.40;2.35;;;;;;;28.14;26.14;100764.34;10392567;28;20042;-87
2022/08/09 09:12:10;;;;;;;8.38;2.50;;;;;;;28.50;25.87;100769.84;10373354;28;20226;-86
2022/08/09 09:17:17;;;;;;;6.43;2.78;;;;;;;28.90;25.22;100769.34;10352363;28;20054;-85
2022/08/09 09:22:21;;;;;;;6.63;2.33;;;;;;;29.06;25.21;100766.41;10367057;28;20054;-85
2022/08/09 09:27:29;;;;;;;5.13;2.28;;;;;;;29.02;25.53;100772.38;10375224;28;20050;-86
2022/08/09 09:33:29;;;;;;;6.28;2.35;;;;;;;29.53;24.24;100763.16;10383772;28;20054;-86
2022/08/09 09:38:47;;;;;;;9.02;2.30;;;;;;;29.62;24.17;100761.97;10364571;28;20057;-86
2022/08/09 09:44:13;;;;;;;4.15;2.30;;;;;;;29.35;24.24;100759.22;10369578;28;20117;-87
2022/08/09 09:49:26;;;;;;;6.38;2.33;;;;;;;29.18;24.41;100749.72;10394157;28;20053;-86
2022/08/09 09:54:49;;;;;;;8.68;2.78;;;;;;;29.40;24.35;100751.44;10390474;28;20062;-86
2022/08/09 09:59:56;;;;;;;8.52;2.25;;;;;;;28.76;24.54;100756.72;10388585;28;20042;-86
2022/08/09 10:05:07;;;;;;;5.30;2.03;;;;;;;29.22;23.30;100756.41;10380341;28;20065;-85
2022/08/09 10:10:09;;;;;;;8.85;2.30;;;;;;;29.34;24.00;100753.00;10384087;28;20056;-86
2022/08/09 10:15:15;;;;;;;7.78;2.20;;;;;;;29.41;23.79;100751.25;10372795;28;20446;-85
2022/08/09 10:20:26;;;;;;;4.65;2.13;;;;;;;29.90;23.56;100751.22;10384547;28;20057;-86
2022/08/09 10:25:36;;;;;;;7.97;2.10;;;;;;;30.34;22.79;100742.78;10363373;28;20054;-87
2022/08/09 10:30:58;;;;;;;4.35;2.00;;;;;;;30.21;22.35;100735.47;10340332;28;20231;-87
2022/08/09 10:36:20;;;;;;;7.63;2.30;;;;;;;30.22;21.89;100733.59;10336058;28;20468;-87
2022/08/09 10:41:23;;;;;;;4.82;2.05;;;;;;;30.29;22.13;100735.31;10334893;28;20133;-86
2022/08/09 10:46:37;;;;;;;6.75;2.20;;;;;;;30.24;21.29;100729.66;10333948;28;20051;-86
2022/08/09 10:51:59;;;;;;;6.43;1.95;;;;;;;30.07;21.57;100717.53;10351070;28;20054;-86
2022/08/09 10:57:05;;;;;;;5.88;2.10;;;;;;;29.65;21.21;100717.63;10354103;28;20068;-86
2022/08/09 11:02:14;;;;;;;5.35;1.55;;;;;;;29.09;21.10;100712.13;10361361;28;20061;-81
2022/08/09 11:07:35;;;;;;;5.95;1.60;;;;;;;29.27;21.10;100708.16;10350013;28;20042;-81
2022/08/09 11:13:18;;;;;;;3.55;1.60;;;;;;;29.07;21.06;100711.50;10338573;28;20058;-81
2022/08/09 11:18:44;;;;;;;5.30;1.75;;;;;;;29.13;21.21;100717.16;10340601;28;20072;-81
2022/08/09 11:23:58;;;;;;;3.88;1.50;;;;;;;29.11;20.86;100713.81;10342268;28;20500;-81
2022/08/09 11:29:00;;;;;;;11.32;2.28;;;;;;;28.99;21.13;100714.31;10338004;28;20080;-81
2022/08/09 11:34:08;;;;;;;4.95;1.73;;;;;;;28.90;21.50;100712.78;10336830;28;20054;-81
2022/08/09 11:39:10;;;;;;;5.03;1.63;;;;;;;29.20;21.33;100701.88;10356477;28;20053;-81
2022/08/09 11:44:12;;;;;;;3.90;1.67;;;;;;;29.15;21.25;100709.72;10345429;28;20058;-81
2022/08/09 11:49:14;;;;;;;5.50;1.85;;;;;;;29.13;21.28;100701.00;10338907;28;20054;-81
2022/08/09 11:54:18;;;;;;;6.65;1.70;;;;;;;29.33;21.02;100705.53;10357662;28;20145;-81
2022/08/09 11:59:30;;;;;;;4.13;1.80;;;;;;;29.05;21.32;100700.09;10346307;28;20046;-81
2022/08/09 12:04:34;;;;;;;4.50;1.77;;;;;;;29.19;21.14;100705.59;10355158;28;20058;-81
2022/08/09 12:09:42;;;;;;;4.25;1.90;;;;;;;29.13;21.48;100701.00;10335800;28;20104;-81
2022/08/09 12:14:51;;;;;;;7.47;2.00;;;;;;;29.48;21.46;100695.50;10345797;28;20169;-81
2022/08/09 12:20:17;;;;;;;13.48;2.00;;;;;;;29.53;20.88;100684.16;10349719;28;20054;-81
2022/08/09 12:25:24;;;;;;;2.97;1.55;;;;;;;29.38;21.52;100678.00;10342500;28;20132;-81
2022/08/09 12:30:38;;;;;;;6.72;1.58;;;;;;;29.70;21.09;100677.44;10334054;28;20116;-81
2022/08/09 12:35:40;;;;;;;6.40;1.75;;;;;;;29.69;20.78;100664.97;10339742;28;20125;-81
2022/08/09 12:40:45;;;;;;;5.10;1.90;;;;;;;29.67;20.62;100675.13;10336241;28;20050;-82
2022/08/09 12:45:54;;;;;;;5.38;1.60;;;;;;;29.50;20.66;100668.41;10331080;28;20051;-81
2022/08/09 12:51:01;;;;;;;3.88;1.95;;;;;;;29.70;20.94;100666.66;10336474;28;20062;-82
2022/08/09 12:56:09;;;;;;;6.63;1.67;;;;;;;29.64;20.18;100660.16;10328993;28;20050;-81
2022/08/09 13:01:25;;;;;;;4.88;1.80;;;;;;;29.61;19.78;100657.03;10343004;28;20057;-82
2022/08/09 13:06:35;;;;;;;2.92;1.70;;;;;;;29.76;20.10;100658.59;10341325;28;20108;-81
2022/08/09 13:11:42;;;;;;;5.53;1.50;;;;;;;29.82;19.89;100654.28;10328297;28;20522;-82
2022/08/09 13:16:55;;;;;;;3.85;1.58;;;;;;;29.92;19.87;100656.63;10329968;28;20058;-81
2022/08/09 13:22:06;;;;;;;4.63;1.85;;;;;;;30.05;19.49;100648.63;10334418;28;20522;-81
2022/08/09 13:27:37;;;;;;;5.60;1.58;;;;;;;30.11;18.89;100643.25;10337001;28;20638;-82
2022/08/09 13:32:54;;;;;;;4.40;1.70;;;;;;;30.26;19.30;100643.09;10348407;28;20062;-81
2022/08/09 13:37:55;;;;;;;4.97;1.67;;;;;;;30.04;19.56;100633.47;10348202;28;20053;-81
2022/08/09 13:42:59;;;;;;;4.32;1.60;;;;;;;30.17;19.44;100628.13;10330733;28;20054;-81
2022/08/09 13:48:05;;;;;;;4.97;1.40;;;;;;;29.99;18.95;100627.84;10329598;28;20054;-81
2022/08/09 13:53:11;;;;;;;3.95;1.60;;;;;;;29.86;19.16;100615.09;10334946;28;20060;-82
2022/08/09 13:58:13;;;;;;;2.55;1.40;;;;;;;30.04;18.77;100622.69;10329322;28;20058;-81
2022/08/09 14:03:17;;;;;;;4.05;1.45;;;;;;;29.89;18.90;100612.81;10331129;28;20057;-81
2022/08/09 14:08:40;;;;;;;4.95;1.55;;;;;;;29.78;19.24;100608.03;10336803;28;20157;-82
2022/08/09 14:13:43;;;;;;;7.05;1.50;;;;;;;29.94;19.30;100620.34;10323808;28;20723;-81
2022/08/09 14:19:05;;;;;;;5.53;1.67;;;;;;;29.96;19.40;100622.84;10331864;28;20137;-82
2022/08/09 14:24:09;;;;;;;3.88;1.40;;;;;;;29.99;19.14;100615.19;10350196;28;20058;-81
2022/08/09 14:29:31;;;;;;;10.50;1.70;;;;;;;30.10;18.95;100613.78;10345042;28;20054;-82
2022/08/09 14:34:53;;;;;;;4.10;1.60;;;;;;;30.15;18.91;100601.34;10328933;28;20145;-82
2022/08/09 14:39:57;;;;;;;6.25;1.67;;;;;;;30.43;18.79;100609.31;10328675;28;20169;-82
2022/08/09 14:45:05;;;;;;;8.35;1.90;;;;;;;30.45;19.00;100602.72;10337720;28;20141;-82
2022/08/09 14:50:30;;;;;;;5.85;1.70;;;;;;;30.50;18.53;100594.00;10331334;28;20129;-81
2022/08/09 14:55:33;;;;;;;6.32;1.70;;;;;;;30.58;18.19;100596.50;10344816;28;20236;-82
2022/08/09 15:00:34;;;;;;;6.10;1.85;;;;;;;30.58;18.55;100600.03;10328026;28;20053;-82
2022/08/09 15:05:37;;;;;;;5.53;1.50;;;;;;;30.62;18.75;100595.03;10349349;28;20344;-81
2022/08/09 15:10:40;;;;;;;2.83;1.50;;;;;;;30.68;18.63;100597.75;10347193;28;20058;-82
2022/08/09 15:15:42;;;;;;;8.27;1.85;;;;;;;30.10;18.54;100598.44;10335429;28;20081;-82
2022/08/09 15:20:44;;;;;;;3.97;1.63;;;;;;;29.70;19.39;100597.38;10330745;28;20057;-82
2022/08/09 15:26:06;;;;;;;5.10;1.60;;;;;;;29.56;19.33;100589.44;10324168;28;20527;-82
2022/08/09 15:31:19;;;;;;;7.50;1.77;;;;;;;29.99;19.16;100577.41;10330416;28;20046;-82
2022/08/09 15:36:29;;;;;;;4.18;1.48;;;;;;;30.21;19.16;100568.19;10327970;28;20436;-81
2022/08/09 15:41:31;;;;;;;3.15;1.60;;;;;;;30.23;19.07;100567.97;10358936;28;20462;-82
2022/08/09 15:46:33;;;;;;;4.00;1.60;;;;;;;29.86;19.16;100570.09;10335685;28;20061;-82
2022/08/09 15:51:35;;;;;;;3.53;1.58;;;;;;;29.84;19.00;100571.31;10335096;28;20416;-82
2022/08/09 15:56:57;;;;;;;5.80;1.60;;;;;;;29.89;18.98;100558.03;10340400;28;20151;-82
2022/08/09 16:01:59;;;;;;;5.35;1.58;;;;;;;30.13;18.55;100548.63;10338108;28;20054;-81
2022/08/09 16:07:01;;;;;;;6.15;1.70;;;;;;;30.16;18.94;100543.66;10342713;28;20057;-82
2022/08/09 16:12:04;;;;;;;5.57;1.70;;;;;;;30.19;18.80;100545.94;10345310;28;20060;-81
2022/08/09 16:17:11;;;;;;;5.65;1.60;;;;;;;30.17;18.74;100545.31;10342976;28;20455;-82
2022/08/09 16:22:17;;;;;;;7.60;1.80;;;;;;;30.29;18.99;100548.25;10338643;28;20416;-81
2022/08/09 16:27:20;;;;;;;5.78;1.65;;;;;;;30.20;19.00;100547.59;10336478;28;20066;-81
2022/08/09 16:33:07;;;;;;;2.50;1.55;;;;;;;29.99;18.96;100553.13;10358670;28;20057;-82
2022/08/09 16:37:55;;;;;;;5.38;1.60;;;;;;;29.87;19.02;100547.47;10337364;28;20050;-82
2022/08/09 16:43:00;;;;;;;5.35;1.88;;;;;;;29.51;19.11;100554.97;10339950;28;20149;-81
2022/08/09 16:48:04;;;;;;;4.28;1.77;;;;;;;29.59;19.06;100552.13;10333706;28;20089;-82
2022/08/09 16:53:26;;;;;;;4.68;1.55;;;;;;;29.45;18.94;100555.78;10346176;28;20285;-82
2022/08/09 16:58:34;;;;;;;;;;;;;;;28.99;19.49;100554.59;10337228;28;20129;-81
2022/08/09 17:03:37;;;;;;;5.78;1.60;;;;;;;29.42;19.16;100540.00;10336338;28;20559;-82
2022/08/09 17:08:42;;;;;;;2.40;1.50;;;;;;;29.38;19.35;100554.84;10353097;28;20058;-82
2022/08/09 17:14:03;;;;;;;5.50;1.65;;;;;;;29.24;19.44;100554.97;10335653;28;20121;-81
2022/08/09 17:19:05;;;;;;;2.58;1.50;;;;;;;29.13;19.31;100558.22;10339386;28;20600;-81
2022/08/09 17:24:11;;;;;;;4.55;1.60;;;;;;;29.13;19.52;100564.44;10338420;28;20054;-82
2022/08/09 17:29:30;;;;;;;4.22;1.65;;;;;;;29.15;19.64;100565.09;10336700;28;20077;-82
2022/08/09 17:34:41;;;;;;;5.93;1.80;;;;;;;29.07;19.99;100574.13;10335163;28;20054;-82
2022/08/09 17:40:05;;;;;;;5.30;1.55;;;;;;;28.93;20.04;100568.84;10327699;28;20133;-81
2022/08/09 17:45:18;;;;;;;6.22;1.60;;;;;;;28.78;20.26;100568.91;10349492;28;20113;-81
2022/08/09 17:50:40;;;;;;;6.45;1.90;;;;;;;28.69;20.68;100567.34;10347094;28;20944;-81
2022/08/09 17:55:56;;;;;;;4.90;1.60;;;;;;;28.73;20.65;100578.56;10333018;28;20153;-81
2022/08/09 18:01:08;;;;;;;9.77;1.80;;;;;;;28.57;20.83;100578.81;10325980;28;20479;-81
2022/08/09 18:06:09;;;;;;;4.40;1.95;;;;;;;28.21;21.38;100582.38;10336722;28;20058;-82
2022/08/09 18:11:34;;;;;;;6.75;2.00;;;;;;;27.98;21.45;100588.91;10332939;28;20488;-82
2022/08/09 18:16:56;;;;;;;5.50;1.75;;;;;;;27.74;21.92;100586.53;10343876;28;20058;-81
2022/08/09 18:21:59;;;;;;;5.00;1.70;;;;;;;27.60;22.18;100590.88;10335181;28;20579;-81
2022/08/09 18:27:02;;;;;;;8.57;2.08;;;;;;;27.43;22.19;100592.88;10347568;28;20476;-81
2022/08/09 18:32:07;;;;;;;4.30;1.83;;;;;;;27.24;22.45;100604.16;10328406;28;20168;-81
2022/08/09 18:37:09;;;;;;;4.50;1.80;;;;;;;27.10;23.08;100602.25;10335916;28;20049;-82
2022/08/09 18:42:31;;;;;;;6.25;2.00;;;;;;;26.92;23.15;100604.44;10330787;28;20133;-82
2022/08/09 18:47:33;;;;;;;5.75;1.90;;;;;;;26.71;23.41;100606.94;10346206;28;20464;-81
2022/08/09 18:52:38;;;;;;;2.97;1.80;;;;;;;26.46;23.62;100617.00;10352246;28;20703;-81
2022/08/09 18:57:42;;;;;;;3.88;1.90;;;;;;;26.29;23.97;100617.25;10339751;28;20060;-82
2022/08/09 19:02:47;;;;;;;4.85;1.77;;;;;;;26.12;24.10;100626.41;10333526;28;20186;-81
2022/08/09 19:07:51;;;;;;;5.55;1.90;;;;;;;25.95;24.53;100632.81;10335587;28;20573;-81
2022/08/09 19:13:13;;;;;;;6.07;2.10;;;;;;;25.79;24.76;100637.19;10333811;28;20056;-82
2022/08/09 19:18:24;;;;;;;5.40;1.80;;;;;;;25.65;24.90;100640.59;10350330;28;20061;-81
2022/08/09 19:23:40;;;;;;;6.00;1.95;;;;;;;25.46;25.44;100646.34;10334507;28;20156;-81
2022/08/09 19:29:07;;;;;;;6.13;1.90;;;;;;;25.30;26.09;100648.16;10337269;28;20046;-82
2022/08/09 19:34:16;;;;;;;6.38;2.15;;;;;;;25.10;26.00;100663.75;10340899;28;20103;-82
2022/08/09 19:39:24;;;;;;;4.78;2.10;;;;;;;24.98;26.26;100673.09;10334689;28;20053;-81
2022/08/09 19:44:47;;;;;;;6.32;2.08;;;;;;;24.85;27.00;100673.59;10341703;28;20141;-81
2022/08/09 19:49:52;;;;;;;8.45;2.10;;;;;;;24.59;26.95;100672.81;10358145;28;20414;-81
2022/08/09 19:55:13;;;;;;;5.80;2.00;;;;;;;24.42;27.70;100675.63;10333830;28;20534;-81
2022/08/09 20:00:16;;;;;;;8.85;1.90;;;;;;;24.29;27.79;100682.28;10330257;28;20092;-81
2022/08/09 20:05:18;;;;;;;8.20;2.08;;;;;;;24.14;28.16;100694.56;10337854;28;20060;-81
2022/08/09 20:10:24;;;;;;;5.07;2.17;;;;;;;24.02;28.04;100693.13;10354539;28;20046;-82
2022/08/09 20:15:34;;;;;;;4.93;2.05;;;;;;;23.87;28.52;100700.09;10333303;28;20054;-82
2022/08/09 20:20:56;;;;;;;4.35;1.83;;;;;;;23.62;29.05;100703.59;10343405;28;20052;-81
2022/08/09 20:25:58;;;;;;;3.78;2.03;;;;;;;23.38;29.50;100706.06;10333959;28;20543;-82
2022/08/09 20:31:01;;;;;;;4.70;2.00;;;;;;;23.26;29.84;100710.81;10335709;28;20061;-81
2022/08/09 20:36:05;;;;;;;7.18;2.00;;;;;;;23.29;30.15;100720.31;10339558;28;20054;-82
2022/08/09 20:41:07;;;;;;;8.32;2.50;;;;;;;23.18;30.12;100717.91;10333040;28;20124;-81
2022/08/09 20:46:10;;;;;;;10.40;2.22;;;;;;;23.02;30.71;100728.44;10337801;28;20066;-81
2022/08/09 20:51:31;;;;;;;7.80;2.50;;;;;;;22.92;31.23;100725.00;10349823;28;20511;-82
2022/08/09 20:56:43;;;;;;;8.05;2.40;;;;;;;22.81;31.60;100719.88;10336274;28;20053;-81
2022/08/09 21:01:50;;;;;;;11.48;2.30;;;;;;;22.69;31.12;100735.22;10341813;28;20049;-81
2022/08/09 21:06:54;;;;;;;11.27;2.35;;;;;;;22.40;31.89;100738.03;10328922;28;20058;-81
2022/08/09 21:11:55;;;;;;;9.43;2.65;;;;;;;22.18;32.23;100735.75;10331254;28;20054;-81
2022/08/09 21:17:06;;;;;;;6.95;2.30;;;;;;;22.08;32.28;100736.78;10331437;28;20169;-81
2022/08/09 21:22:28;;;;;;;8.10;2.50;;;;;;;21.97;32.75;100742.22;10331339;28;20137;-81
2022/08/09 21:27:39;;;;;;;5.05;2.33;;;;;;;21.79;32.87;100744.81;10343180;28;20414;-81
2022/08/09 21:32:53;;;;;;;5.10;2.00;;;;;;;21.75;32.85;100741.59;10347513;28;20046;-81
2022/08/09 21:37:57;;;;;;;5.50;2.08;;;;;;;21.67;33.16;100740.63;10336181;28;20117;-81
2022/08/09 21:43:03;;;;;;;7.72;2.45;;;;;;;21.64;33.51;100746.25;10356055;28;20493;-81
2022/08/09 21:48:06;;;;;;;4.53;2.20;;;;;;;21.59;33.37;100751.16;10327711;28;20181;-81
2022/08/09 21:53:08;;;;;;;5.65;2.30;;;;;;;21.46;33.83;100742.63;10333300;28;20104;-81
2022/08/09 21:58:30;;;;;;;7.25;2.30;;;;;;;21.47;34.00;100761.13;10329495;28;20108;-82
2022/08/09 22:03:31;;;;;;;4.60;2.10;;;;;;;21.55;34.23;100758.59;10336805;28;20201;-81
2022/08/09 22:08:37;;;;;;;6.22;2.33;;;;;;;21.52;34.36;100755.34;10340283;28;20053;-82
2022/08/09 22:13:44;;;;;;;5.00;2.50;;;;;;;21.42;34.66;100758.03;10344766;28;20061;-82
2022/08/09 22:18:46;;;;;;;5.70;2.47;;;;;;;21.32;34.84;100767.00;10335029;28;20046;-81
2022/08/09 22:23:55;;;;;;;8.70;2.60;;;;;;;21.18;35.10;100762.91;10339883;28;20151;-81
2022/08/09 22:29:03;;;;;;;8.02;2.33;;;;;;;21.08;35.46;100760.25;10333587;28;20564;-81
2022/08/09 22:34:11;;;;;;;4.85;2.42;;;;;;;21.00;35.63;100770.75;10350848;28;20054;-81
2022/08/09 22:39:15;;;;;;;7.65;2.83;;;;;;;20.98;35.99;100774.50;10338324;28;20046;-80
2022/08/09 22:44:37;;;;;;;7.28;2.60;;;;;;;20.97;36.11;100773.66;10348007;28;20129;-81
2022/08/09 22:49:46;;;;;;;6.27;2.60;;;;;;;20.71;36.37;100775.16;10331785;28;20078;-82
2022/08/09 22:54:52;;;;;;;3.70;2.53;;;;;;;20.37;36.61;100767.59;10331841;28;20054;-82
2022/08/09 22:59:56;;;;;;;7.75;2.78;;;;;;;20.21;37.08;100782.19;10330832;28;20133;-82
2022/08/09 23:05:00;;;;;;;6.65;3.10;;;;;;;20.32;37.17;100781.25;10338586;28;20062;-81
2022/08/09 23:10:06;;;;;;;4.53;2.50;;;;;;;20.30;37.21;100783.22;10334067;28;20056;-82
2022/08/09 23:15:09;;;;;;;6.82;2.58;;;;;;;19.97;37.50;100778.97;10344950;28;20340;-81
2022/08/09 23:20:11;;;;;;;4.90;2.72;;;;;;;19.80;37.84;100773.41;10328369;28;20570;-82
2022/08/09 23:25:12;;;;;;;5.78;2.75;;;;;;;19.76;38.04;100767.53;10331184;28;20058;-81
2022/08/09 23:30:15;;;;;;;5.00;2.67;;;;;;;19.82;38.12;100766.19;10329337;28;20424;-82
2022/08/09 23:35:17;;;;;;;5.13;2.60;;;;;;;19.87;38.22;100766.63;10325736;28;20050;-82
2022/08/09 23:40:18;;;;;;;7.95;2.70;;;;;;;19.72;38.16;100773.22;10335734;28;20526;-82
2022/08/09 23:45:20;;;;;;;3.80;2.45;;;;;;;19.55;38.42;100769.31;10339921;28;20058;-82